Jackson, MI

5:35 AM EST on December 22, 2014 (GMT -0500)
Mason Jewett | Change Station
CLOSE
Current Station
Airport
Location: Mason,
Elevation: 919 ft
Nearby Weather Stations

Elev 919 ft 42.57 °N, 84.42 °W | Updated 21 minutes ago

Partly Cloudy
Partly Cloudy
26 °F
Feels Like 19 °F
N
7
Wind Variable Wind from SE

Today
High -- | Low -- °F
--% Chance of Precip.
Yesterday
High -- | Low -- °F
Precip. -- in
8:03 AM 5:08 PM
New Moon, 0% visible
Pressure 30.08 in
Visibility 5.0 miles
Clouds Clear
Windchill 19 °F
Dew Point 23 °F
Humidity 88%
Rainfall 0.00 in
Snow Depth Not available.
UV 0 out of 12
Pollen .10 out of 12
Air Quality Not available.
Flu Activity Not available.
METAR KTEW 221014Z AUTO 14006KT 5SM BR CLR M03/M05 A3008 RMK AO2 T10311048

More Conditions Fewer Conditions

Pressure 30.08 in
Visibility 5.0 miles
Clouds Clear
Windchill 19 °F
Dew Point 23 °F
Humidity 88%
Rainfall 0.00 in
Snow Depth Not available.
UV 0 out of 12
Pollen .10 out of 12
Air Quality Not available.
Flu Activity Not available.
METAR KTEW 221014Z AUTO 14006KT 5SM BR CLR M03/M05 A3008 RMK AO2 T10311048

More Conditions Fewer Conditions

10-Day Weather Forecast

Almanac

Astronomy

Dec. 22, 2014 Rise Set
Actual Time
Civil Twilight
Nautical Twilight
Astronomical Twilight
Moon
Length of Visible Light
Length of Day
Tomorrow will be .
, % of the Moon is Illuminated

Today's Extremes

State Highs State Lows

Community

WunderPhotos

Upload Photos

1,779,583 photos uploaded!

WunderBlogs® & News

Nearby

Air Quality

  Air Quality AQ Index Pollutant
Not available.

Snow Depth

Station Depth Elevation

Earthquake Activity

City Distance Mag. Time & Date
Minimum magnitude displayed is 2.5.

Coastal Water Temperatures

Place Temperature

Nearby Weather Stations